Time;durP1;ratioP1;P1;durP2;ratioP2;P2;SDS_P1;SDS_P2;PMS_P1;PMS_P2;Temp;Humidity;BMP_temperature;BMP_pressure;BME280_temperature;BME280_humidity;BME280_pressure;Samples;Min_cycle;Max_cycle;Signal;HPM_P1;HPM_P2
2022/01/02 00:01:37;;;;;;;6.97;4.03;;;10.60;49.30;;;;;;5051767;28;20524;-48
2022/01/02 00:04:04;;;;;;;8.90;4.70;;;10.50;49.60;;;;;;5051896;28;20466;-48
2022/01/02 00:06:34;;;;;;;7.27;4.10;;;10.50;46.20;;;;;;5051647;28;20477;-48
2022/01/02 00:09:05;;;;;;;6.70;4.47;;;10.50;47.20;;;;;;5050629;28;20477;-48
2022/01/02 00:11:32;;;;;;;6.30;4.20;;;10.50;49.10;;;;;;5051809;28;20540;-48
2022/01/02 00:14:07;;;;;;;7.50;4.83;;;10.40;49.60;;;;;;5051458;28;21018;-49
2022/01/02 00:16:35;;;;;;;10.70;4.97;;;10.30;44.00;;;;;;5051563;28;20450;-48
2022/01/02 00:19:07;;;;;;;7.93;5.33;;;10.30;41.80;;;;;;5051187;28;20466;-47
2022/01/02 00:21:39;;;;;;;11.07;6.37;;;10.20;44.60;;;;;;5051215;28;20925;-48
2022/01/02 00:24:13;;;;;;;11.30;4.40;;;10.20;43.20;;;;;;5051008;28;20868;-48
2022/01/02 00:26:43;;;;;;;12.37;5.10;;;10.10;44.10;;;;;;5051435;28;20442;-48
2022/01/02 00:29:11;;;;;;;17.27;5.03;;;10.10;41.90;;;;;;5053039;28;20827;-50
2022/01/02 00:31:39;;;;;;;12.43;5.67;;;10.00;41.90;;;;;;5055135;28;20990;-50
2022/01/02 00:34:07;;;;;;;8.60;5.30;;;10.00;41.50;;;;;;5054951;28;20730;-47
2022/01/02 00:36:34;;;;;;;10.53;5.40;;;9.90;39.50;;;;;;5054956;28;20566;-49
2022/01/02 00:39:01;;;;;;;8.23;4.90;;;9.90;37.80;;;;;;5054634;28;20505;-48
2022/01/02 00:41:43;;;;;;;13.23;5.50;;;9.90;33.60;;;;;;5054760;28;20442;-47
2022/01/02 00:44:17;;;;;;;8.10;5.83;;;9.90;38.50;;;;;;5054984;28;20473;-49
2022/01/02 00:46:53;;;;;;;8.70;5.17;;;9.90;41.90;;;;;;5054808;28;20485;-49
2022/01/02 00:49:25;;;;;;;10.53;5.73;;;9.80;41.90;;;;;;5054694;28;20465;-49
2022/01/02 00:51:59;;;;;;;9.67;5.83;;;9.80;41.90;;;;;;5054721;28;20461;-49
2022/01/02 00:54:29;;;;;;;6.20;5.03;;;9.80;37.30;;;;;;5054501;28;20513;-49
2022/01/02 00:57:03;;;;;;;12.00;5.90;;;9.80;35.70;;;;;;5054622;28;20457;-48
2022/01/02 00:59:31;;;;;;;8.50;5.03;;;9.80;38.90;;;;;;5054184;28;20464;-48
2022/01/02 01:02:02;;;;;;;7.80;4.90;;;9.80;41.10;;;;;;5054759;28;20920;-49
2022/01/02 01:04:31;;;;;;;9.57;4.97;;;9.70;37.70;;;;;;5054380;28;20528;-49
2022/01/02 01:07:02;;;;;;;4.90;4.27;;;9.70;40.80;;;;;;5054416;28;20939;-49
2022/01/02 01:09:30;;;;;;;8.27;5.50;;;9.70;43.00;;;;;;5054014;28;20528;-49
2022/01/02 01:11:59;;;;;;;9.03;5.10;;;9.70;41.40;;;;;;5054363;28;20481;-49
2022/01/02 01:14:25;;;;;;;12.07;4.90;;;9.70;39.20;;;;;;5054340;28;20503;-49
2022/01/02 01:16:53;;;;;;;10.50;4.40;;;9.70;42.90;;;;;;5054455;28;20500;-48
2022/01/02 01:19:20;;;;;;;11.53;5.13;;;9.80;52.30;;;;;;5053615;28;20878;-49
2022/01/02 01:21:47;;;;;;;6.67;4.63;;;9.80;58.60;;;;;;5054158;28;20450;-50
2022/01/02 01:24:14;;;;;;;11.20;5.07;;;9.80;59.10;;;;;;5054018;28;20867;-47
2022/01/02 01:26:40;;;;;;;10.70;4.97;;;9.80;56.40;;;;;;5054361;28;20485;-48
2022/01/02 01:29:09;;;;;;;8.90;4.13;;;9.80;53.70;;;;;;5053618;28;20521;-49
2022/01/02 01:31:35;;;;;;;10.70;4.77;;;9.70;53.80;;;;;;5054329;28;20474;-47
2022/01/02 01:34:02;;;;;;;7.50;4.43;;;9.70;47.20;;;;;;5053712;28;21026;-49
2022/01/02 01:36:28;;;;;;;9.93;4.93;;;9.70;45.40;;;;;;5053675;28;20480;-49
2022/01/02 01:38:55;;;;;;;7.07;4.40;;;9.80;48.30;;;;;;5053233;28;20557;-48
2022/01/02 01:41:27;;;;;;;9.60;5.90;;;9.80;51.40;;;;;;5053981;28;20541;-49
2022/01/02 01:44:07;;;;;;;11.50;5.60;;;9.80;55.50;;;;;;5053619;28;20529;-49
2022/01/02 01:46:35;;;;;;;6.13;4.70;;;9.80;54.60;;;;;;5053920;28;20441;-49
2022/01/02 01:49:01;;;;;;;8.50;4.90;;;9.80;55.90;;;;;;5053150;28;20556;-48
2022/01/02 01:51:28;;;;;;;8.40;5.00;;;9.70;56.10;;;;;;5053778;28;20528;-50
2022/01/02 01:53:55;;;;;;;8.40;4.33;;;9.70;52.00;;;;;;5053836;28;20525;-49
2022/01/02 01:56:21;;;;;;;8.47;5.10;;;9.70;51.50;;;;;;5053751;28;20576;-49
2022/01/02 01:58:48;;;;;;;9.00;4.67;;;9.60;49.60;;;;;;5053107;28;20572;-48
2022/01/02 02:01:14;;;;;;;9.10;5.80;;;9.60;47.50;;;;;;5052968;28;20542;-49
2022/01/02 02:03:42;;;;;;;9.63;5.47;;;9.70;47.60;;;;;;5053551;28;20528;-49
2022/01/02 02:06:09;;;;;;;9.97;5.80;;;9.60;45.50;;;;;;5053565;28;20541;-49
2022/01/02 02:08:36;;;;;;;6.37;5.17;;;9.60;40.50;;;;;;5053164;28;20489;-48
2022/01/02 02:11:03;;;;;;;12.20;5.13;;;9.60;42.90;;;;;;5053407;28;20446;-49
2022/01/02 02:13:30;;;;;;;5.77;4.83;;;9.50;39.60;;;;;;5053220;28;20535;-49
2022/01/02 02:15:57;;;;;;;10.30;4.97;;;9.50;30.80;;;;;;5053475;28;20537;-49
2022/01/02 02:18:24;;;;;;;8.77;4.90;;;9.40;31.10;;;;;;5072646;28;20473;-47
2022/01/02 02:20:52;;;;;;;9.53;5.90;;;9.40;30.80;;;;;;5073235;28;20536;-49
2022/01/02 02:23:18;;;;;;;9.20;5.50;;;9.40;25.40;;;;;;5073099;28;20473;-49
2022/01/02 02:25:45;;;;;;;11.37;5.63;;;9.30;82.20;;;;;;5072979;28;20958;-48
2022/01/02 02:28:13;;;;;;;11.00;4.70;;;9.30;99.90;;;;;;5072631;28;20504;-49
2022/01/02 02:30:43;;;;;;;12.37;5.77;;;9.30;91.50;;;;;;5057831;28;20561;-49
2022/01/02 02:33:10;;;;;;;8.57;5.30;;;9.20;84.60;;;;;;5052720;28;20465;-49
2022/01/02 02:35:39;;;;;;;8.50;5.17;;;9.20;99.90;;;;;;5050936;28;20983;-48
2022/01/02 02:38:09;;;;;;;6.47;5.17;;;9.20;99.90;;;;;;5052414;28;20511;-49
2022/01/02 02:40:36;;;;;;;9.30;5.77;;;9.20;99.90;;;;;;5052474;28;20533;-49
2022/01/02 02:43:08;;;;;;;7.83;5.10;;;9.20;99.90;;;;;;5052687;28;20543;-49
2022/01/02 02:51:06;;;;;;;6.27;4.60;;;9.20;99.90;;;;;;5051857;28;20417;-48
2022/01/02 02:53:34;;;;;;;9.63;5.27;;;9.20;99.90;;;;;;5052503;28;20477;-48
2022/01/02 02:56:01;;;;;;;9.30;5.00;;;9.10;99.90;;;;;;5052610;28;20456;-49
2022/01/02 02:58:42;;;;;;;5.60;4.53;;;9.10;99.90;;;;;;5051667;28;20485;-48
2022/01/02 03:01:11;;;;;;;10.87;4.33;;;9.10;99.90;;;;;;5051617;28;20454;-48
2022/01/02 03:03:38;;;;;;;6.40;4.70;;;9.10;99.90;;;;;;5051826;28;20517;-49
2022/01/02 03:06:06;;;;;;;4.70;4.00;;;9.10;99.90;;;;;;5052184;28;20525;-47
2022/01/02 03:08:36;;;;;;;8.03;5.27;;;9.10;99.90;;;;;;5051969;28;20476;-50
2022/01/02 03:11:03;;;;;;;5.70;4.03;;;9.00;99.90;;;;;;5051893;28;20496;-48
2022/01/02 03:13:30;;;;;;;5.83;5.00;;;9.00;99.90;;;;;;5051666;28;20453;-49
2022/01/02 03:15:56;;;;;;;9.97;4.53;;;9.00;99.90;;;;;;5051955;28;20524;-49
2022/01/02 03:18:23;;;;;;;9.33;5.20;;;9.00;99.90;;;;;;5051923;28;20545;-48
2022/01/02 03:20:49;;;;;;;6.57;4.60;;;9.00;99.90;;;;;;5052202;28;20496;-48
2022/01/02 03:23:16;;;;;;;11.13;6.37;;;9.00;99.90;;;;;;5052311;28;20481;-48
2022/01/02 03:25:44;;;;;;;8.07;5.40;;;9.00;99.90;;;;;;5051893;28;20540;-49
2022/01/02 03:28:10;;;;;;;5.73;4.63;;;9.10;99.90;;;;;;5051137;28;20561;-48
2022/01/02 03:30:37;;;;;;;7.03;4.43;;;9.00;99.90;;;;;;5051691;28;20473;-49
2022/01/02 03:33:03;;;;;;;10.63;4.87;;;9.10;99.90;;;;;;5052009;28;20503;-49
2022/01/02 03:35:30;;;;;;;8.33;5.30;;;9.10;99.90;;;;;;5051833;28;20565;-48
2022/01/02 03:37:57;;;;;;;7.30;4.87;;;9.10;99.90;;;;;;5051443;28;21097;-49
2022/01/02 03:40:24;;;;;;;8.90;5.37;;;9.10;99.90;;;;;;5051254;28;20445;-49
2022/01/02 03:42:52;;;;;;;8.67;5.40;;;9.10;99.90;;;;;;5051657;28;20517;-49
2022/01/02 03:45:18;;;;;;;13.40;6.03;;;9.10;99.90;;;;;;5051844;28;20534;-49
2022/01/02 03:47:45;;;;;;;6.27;5.20;;;9.10;99.90;;;;;;5051403;28;20553;-48
2022/01/02 03:50:12;;;;;;;8.17;5.17;;;9.10;99.90;;;;;;5051794;28;20476;-49
2022/01/02 03:52:38;;;;;;;13.00;6.07;;;9.10;99.90;;;;;;5051535;28;20987;-48
2022/01/02 03:55:07;;;;;;;5.83;4.50;;;9.10;99.90;;;;;;5051391;28;20505;-50
2022/01/02 03:57:33;;;;;;;8.03;5.60;;;9.10;99.90;;;;;;5051451;28;21069;-56
2022/01/02 04:00:02;;;;;;;9.50;5.87;;;9.00;99.90;;;;;;5051450;28;20533;-57
2022/01/02 04:02:28;;;;;;;5.40;4.60;;;9.00;99.90;;;;;;5051650;28;20454;-55
2022/01/02 04:04:55;;;;;;;14.80;6.47;;;9.00;99.90;;;;;;5054996;28;20540;-56
2022/01/02 04:07:21;;;;;;;5.77;5.17;;;9.00;99.90;;;;;;5055308;28;21067;-62
2022/01/02 04:09:48;;;;;;;14.10;5.50;;;9.00;99.90;;;;;;5055328;28;20482;-56
2022/01/02 04:12:15;;;;;;;4.67;4.23;;;9.00;99.90;;;;;;5055429;28;20495;-56
2022/01/02 04:14:41;;;;;;;6.80;5.00;;;8.90;99.90;;;;;;5055665;28;20576;-54
2022/01/02 04:17:09;;;;;;;6.77;5.40;;;8.90;99.90;;;;;;5055596;28;20528;-56
2022/01/02 04:19:36;;;;;;;8.20;5.23;;;8.80;99.90;;;;;;5054901;28;20900;-54
2022/01/02 04:22:02;;;;;;;6.47;5.30;;;8.80;99.90;;;;;;5055281;28;20485;-55
2022/01/02 04:24:29;;;;;;;7.80;4.97;;;8.80;99.90;;;;;;5055388;28;20528;-56
2022/01/02 04:26:55;;;;;;;5.10;4.67;;;8.70;99.90;;;;;;5055180;28;20477;-56
2022/01/02 04:29:22;;;;;;;5.80;5.20;;;8.60;99.90;;;;;;5054462;28;20501;-55
2022/01/02 04:31:48;;;;;;;6.47;5.20;;;8.60;99.90;;;;;;5055048;28;21058;-56
2022/01/02 04:34:16;;;;;;;9.87;5.40;;;8.60;99.90;;;;;;5054602;28;20556;-55
2022/01/02 04:36:43;;;;;;;7.13;5.33;;;8.60;99.90;;;;;;5055045;28;20541;-57
2022/01/02 04:39:09;;;;;;;6.60;5.33;;;8.50;99.90;;;;;;5054676;28;20501;-54
2022/01/02 04:41:36;;;;;;;13.10;5.27;;;8.50;99.90;;;;;;5054851;28;20528;-55
2022/01/02 04:44:02;;;;;;;8.50;5.27;;;8.50;99.90;;;;;;5055136;28;20508;-55
2022/01/02 04:46:29;;;;;;;8.40;5.00;;;8.40;99.90;;;;;;5055012;28;20540;-56
2022/01/02 04:48:55;;;;;;;9.90;5.13;;;8.30;99.90;;;;;;5053786;28;21066;-54
2022/01/02 04:51:23;;;;;;;7.80;5.13;;;8.30;99.90;;;;;;5054798;28;20617;-55
2022/01/02 04:53:50;;;;;;;5.53;4.87;;;8.30;99.90;;;;;;5054673;28;20982;-56
2022/01/02 04:56:17;;;;;;;7.40;5.53;;;8.20;99.90;;;;;;5054303;28;20458;-56
2022/01/02 04:58:44;;;;;;;7.30;5.23;;;8.20;99.90;;;;;;5054265;28;20512;-54
2022/01/02 05:01:12;;;;;;;9.00;5.37;;;8.20;99.90;;;;;;5054187;28;20536;-54
2022/01/02 05:03:39;;;;;;;14.90;5.57;;;8.20;99.90;;;;;;5054530;28;20450;-56
2022/01/02 05:06:05;;;;;;;7.33;5.10;;;8.20;99.90;;;;;;5054511;28;20450;-55
2022/01/02 05:08:33;;;;;;;12.03;5.90;;;8.10;99.90;;;;;;5054052;28;20995;-54
2022/01/02 05:11:00;;;;;;;7.53;6.30;;;8.10;99.90;;;;;;5054562;28;20474;-56
2022/01/02 05:13:27;;;;;;;8.90;6.10;;;8.10;99.90;;;;;;5054464;28;20449;-55
2022/01/02 05:15:54;;;;;;;6.80;5.30;;;8.00;99.90;;;;;;5051692;28;20569;-56
2022/01/02 05:18:21;;;;;;;8.17;5.83;;;8.00;99.90;;;;;;5053917;28;20517;-56
2022/01/02 05:20:47;;;;;;;8.57;4.70;;;8.00;99.90;;;;;;5054559;28;20480;-55
2022/01/02 05:23:14;;;;;;;5.47;4.53;;;7.90;99.90;;;;;;5054103;28;20532;-54
2022/01/02 05:25:42;;;;;;;8.63;5.87;;;7.90;99.90;;;;;;5054486;28;20524;-56
2022/01/02 05:28:10;;;;;;;9.73;5.30;;;7.90;99.90;;;;;;5053939;28;20508;-56
2022/01/02 05:30:37;;;;;;;6.13;5.57;;;7.90;99.90;;;;;;5053597;28;20457;-55
2022/01/02 05:33:04;;;;;;;6.50;5.43;;;7.90;93.70;;;;;;5054104;28;20511;-55
2022/01/02 05:35:31;;;;;;;13.37;6.17;;;7.90;91.70;;;;;;5053795;28;20578;-55
2022/01/02 05:37:57;;;;;;;8.80;5.73;;;7.90;90.40;;;;;;5053579;28;20466;-55
2022/01/02 05:40:24;;;;;;;14.50;6.30;;;7.90;91.80;;;;;;5054064;28;21000;-55
2022/01/02 05:42:52;;;;;;;7.20;5.63;;;7.90;84.70;;;;;;5053789;28;20457;-55
2022/01/02 05:45:19;;;;;;;10.30;5.80;;;7.90;87.40;;;;;;5053462;28;20541;-55
2022/01/02 05:47:45;;;;;;;7.47;5.30;;;7.90;81.20;;;;;;5053523;28;20557;-55
2022/01/02 05:50:12;;;;;;;6.47;5.87;;;7.80;80.20;;;;;;5053663;28;20478;-55
2022/01/02 05:52:39;;;;;;;16.93;5.20;;;7.80;71.10;;;;;;5053579;28;20806;-56
2022/01/02 05:55:06;;;;;;;7.70;6.77;;;7.90;61.40;;;;;;5053668;28;21118;-55
2022/01/02 05:57:33;;;;;;;10.77;6.40;;;7.80;65.60;;;;;;5052969;28;20524;-56
2022/01/02 06:00:01;;;;;;;7.60;6.70;;;7.80;66.60;;;;;;5053443;28;20445;-56
2022/01/02 06:02:27;;;;;;;11.70;7.20;;;7.80;56.80;;;;;;5053390;28;20474;-55
2022/01/02 06:04:54;;;;;;;8.87;6.40;;;7.80;58.90;;;;;;5053266;28;20935;-58
2022/01/02 06:07:20;;;;;;;12.93;6.57;;;7.80;55.50;;;;;;5053263;28;20523;-55
2022/01/02 06:09:47;;;;;;;6.57;5.87;;;7.80;48.90;;;;;;5053354;28;20530;-55
2022/01/02 06:12:13;;;;;;;7.10;5.63;;;7.80;47.40;;;;;;5053132;28;20545;-55
2022/01/02 06:14:40;;;;;;;11.03;5.47;;;7.90;46.00;;;;;;5053163;28;20581;-55
2022/01/02 06:17:08;;;;;;;6.73;5.50;;;7.90;40.90;;;;;;5053114;28;20473;-56
2022/01/02 06:19:34;;;;;;;9.97;7.17;;;7.90;45.80;;;;;;5052742;28;20537;-56
2022/01/02 06:22:01;;;;;;;9.80;5.70;;;7.90;47.70;;;;;;5053200;28;20478;-55
2022/01/02 06:24:27;;;;;;;5.27;4.77;;;7.90;47.20;;;;;;5053331;28;20450;-56
2022/01/02 06:26:54;;;;;;;7.93;5.50;;;7.90;45.00;;;;;;5051916;28;20917;-56
2022/01/02 06:29:21;;;;;;;6.50;5.80;;;7.90;40.20;;;;;;5052501;28;20544;-54
2022/01/02 06:31:48;;;;;;;7.43;6.37;;;8.00;38.10;;;;;;5052873;28;20480;-54
2022/01/02 06:34:15;;;;;;;8.50;6.50;;;8.00;41.00;;;;;;5052724;28;20524;-55
2022/01/02 06:36:42;;;;;;;5.40;4.83;;;8.00;43.50;;;;;;5052814;28;20516;-55
2022/01/02 06:39:09;;;;;;;7.13;6.43;;;8.00;46.30;;;;;;5052537;28;20556;-56
2022/01/02 06:41:35;;;;;;;6.57;5.50;;;8.10;49.20;;;;;;5052497;28;20484;-55
2022/01/02 06:44:02;;;;;;;12.00;6.33;;;8.10;49.90;;;;;;5052675;28;20493;-55
2022/01/02 06:46:28;;;;;;;9.20;6.30;;;8.10;48.40;;;;;;5052644;28;20524;-55
2022/01/02 06:48:55;;;;;;;9.13;6.97;;;8.10;50.60;;;;;;5052192;28;20508;-56
2022/01/02 06:51:23;;;;;;;15.10;7.87;;;8.10;49.80;;;;;;5052656;28;20442;-55
2022/01/02 06:53:49;;;;;;;6.10;5.47;;;8.20;51.40;;;;;;5052416;28;20477;-54
2022/01/02 06:56:16;;;;;;;7.10;6.40;;;8.20;51.60;;;;;;5051960;28;20603;-56
2022/01/02 06:58:42;;;;;;;12.23;6.07;;;8.30;55.50;;;;;;5052130;28;20513;-56
2022/01/02 07:01:09;;;;;;;7.87;5.53;;;8.30;46.10;;;;;;5052238;28;20532;-55
2022/01/02 07:03:37;;;;;;;6.83;5.90;;;8.30;51.80;;;;;;5052140;28;20477;-54
2022/01/02 07:06:04;;;;;;;9.03;5.50;;;8.30;49.00;;;;;;5052364;28;20456;-56
2022/01/02 07:08:32;;;;;;;8.00;4.93;;;8.30;47.30;;;;;;5052040;28;20493;-56
2022/01/02 07:11:00;;;;;;;5.93;4.77;;;8.30;48.20;;;;;;5052046;28;20508;-56
2022/01/02 07:13:26;;;;;;;7.90;4.83;;;8.30;46.30;;;;;;5052230;28;20482;-56
2022/01/02 07:15:53;;;;;;;8.70;5.63;;;8.40;41.80;;;;;;5052177;28;20576;-56
2022/01/02 07:18:19;;;;;;;8.30;5.03;;;8.40;44.70;;;;;;5051863;28;20469;-56
2022/01/02 07:20:46;;;;;;;6.00;4.70;;;8.40;48.40;;;;;;5052348;28;20508;-56
2022/01/02 07:23:12;;;;;;;8.13;5.90;;;8.40;49.60;;;;;;5052336;28;20517;-56
2022/01/02 07:25:40;;;;;;;9.53;5.10;;;8.50;46.00;;;;;;5052170;28;21115;-56
2022/01/02 07:28:07;;;;;;;8.17;4.70;;;8.50;49.30;;;;;;5051746;28;21036;-56
2022/01/02 07:30:34;;;;;;;6.67;4.87;;;8.50;51.60;;;;;;5051779;28;20482;-56
2022/01/02 07:33:02;;;;;;;5.13;4.63;;;8.50;48.50;;;;;;5032257;28;20521;-55
2022/01/02 07:35:29;;;;;;;6.20;5.00;;;8.50;44.80;;;;;;5032181;28;20536;-54
2022/01/02 07:37:57;;;;;;;5.73;4.20;;;8.50;41.80;;;;;;5031864;28;20477;-54
2022/01/02 07:40:24;;;;;;;5.87;4.30;;;8.50;40.30;;;;;;5032013;28;20524;-54
2022/01/02 07:42:52;;;;;;;6.37;5.70;;;8.50;43.00;;;;;;5033341;28;20459;-62
2022/01/02 07:45:19;;;;;;;6.43;4.53;;;8.50;40.90;;;;;;5051848;28;20867;-56
2022/01/02 07:47:46;;;;;;;5.83;4.37;;;8.50;34.80;;;;;;5051602;28;20492;-54
2022/01/02 07:50:13;;;;;;;6.30;4.73;;;8.50;29.40;;;;;;5051822;28;20947;-56
2022/01/02 07:52:39;;;;;;;4.77;4.27;;;8.50;24.90;;;;;;5051945;28;20450;-55
2022/01/02 07:55:07;;;;;;;7.23;4.73;;;8.50;79.90;;;;;;5051592;28;20968;-56
2022/01/02 07:57:33;;;;;;;5.87;4.70;;;8.60;99.90;;;;;;5051320;28;21179;-57
2022/01/02 08:00:01;;;;;;;8.30;4.27;;;8.60;99.90;;;;;;5051503;28;20959;-55
2022/01/02 08:02:28;;;;;;;4.53;4.10;;;8.70;95.60;;;;;;5052432;28;20477;-54
2022/01/02 08:04:54;;;;;;;3.80;3.40;;;8.70;20.30;;;;;;5051910;28;20511;-53
2022/01/02 08:07:21;;;;;;;5.20;3.87;;;8.90;77.40;;;;;;5051951;28;20496;-55
2022/01/02 08:09:47;;;;;;;7.20;3.90;;;9.00;40.00;;;;;;5051366;28;21003;-56
2022/01/02 08:12:14;;;;;;;5.70;3.50;;;9.00;77.20;;;;;;5051433;28;20537;-56
2022/01/02 08:14:40;;;;;;;6.27;4.50;;;9.00;77.60;;;;;;5051663;28;20478;-55
2022/01/02 08:17:08;;;;;;;11.47;4.23;;;9.00;79.40;;;;;;5051751;28;20569;-56
2022/01/02 08:19:34;;;;;;;4.23;3.80;;;9.00;78.80;;;;;;5051468;28;20477;-55
2022/01/02 08:22:01;;;;;;;4.60;4.20;;;9.00;81.20;;;;;;5051549;28;20485;-55
2022/01/02 08:24:27;;;;;;;6.63;3.53;;;9.00;82.80;;;;;;5051528;28;20524;-56
2022/01/02 08:26:54;;;;;;;6.60;4.10;;;9.10;85.90;;;;;;5051795;28;20472;-56
2022/01/02 08:29:21;;;;;;;7.57;3.87;;;9.10;80.70;;;;;;5050739;28;20914;-57
2022/01/02 08:31:47;;;;;;;4.53;3.30;;;9.00;87.90;;;;;;5051387;28;20885;-56
2022/01/02 08:34:15;;;;;;;7.37;3.87;;;9.00;76.40;;;;;;5051333;28;20982;-56
2022/01/02 08:36:42;;;;;;;4.40;3.53;;;9.00;71.90;;;;;;5051314;28;20572;-55
2022/01/02 08:39:08;;;;;;;5.13;3.77;;;9.00;46.50;;;;;;5050726;28;20903;-56
2022/01/02 08:41:35;;;;;;;6.17;3.60;;;9.00;45.50;;;;;;5051119;28;20504;-56
2022/01/02 08:44:01;;;;;;;6.57;3.83;;;9.10;24.60;;;;;;5051269;28;20532;-55
2022/01/02 08:46:28;;;;;;;4.43;3.90;;;9.10;29.10;;;;;;5051311;28;20529;-56
2022/01/02 08:48:54;;;;;;;8.10;3.83;;;9.10;99.90;;;;;;5051628;28;20566;-56
2022/01/02 08:51:22;;;;;;;4.83;3.57;;;9.20;99.90;;;;;;5054872;28;20500;-55
2022/01/02 08:53:49;;;;;;;5.10;3.90;;;9.20;99.90;;;;;;5054928;28;20533;-56
2022/01/02 08:56:15;;;;;;;5.70;3.20;;;9.20;99.90;;;;;;5054936;28;20567;-57
2022/01/02 08:58:42;;;;;;;5.60;3.67;;;9.20;99.90;;;;;;5054597;28;21103;-56
2022/01/02 09:01:08;;;;;;;5.93;3.20;;;9.30;99.90;;;;;;5055002;28;20904;-54
2022/01/02 09:03:35;;;;;;;11.00;5.27;;;9.40;99.90;;;;;;5055232;28;20488;-55
2022/01/02 09:06:01;;;;;;;4.60;4.20;;;9.40;99.90;;;;;;5054953;28;20481;-56
2022/01/02 09:08:29;;;;;;;6.70;3.53;;;9.40;99.90;;;;;;5054835;28;20474;-56
2022/01/02 09:10:56;;;;;;;7.37;3.90;;;9.50;99.90;;;;;;5054669;28;20484;-57
2022/01/02 09:13:23;;;;;;;7.07;4.13;;;9.50;99.90;;;;;;5054775;28;20529;-56
2022/01/02 09:15:50;;;;;;;3.90;3.60;;;9.60;99.90;;;;;;5054715;28;20576;-56
2022/01/02 09:18:17;;;;;;;7.30;4.03;;;9.70;99.90;;;;;;5053776;28;20482;-56
2022/01/02 09:20:44;;;;;;;5.80;3.80;;;9.70;99.90;;;;;;5054539;28;20481;-55
2022/01/02 09:23:10;;;;;;;5.60;4.40;;;9.80;99.90;;;;;;5054198;28;20456;-55
2022/01/02 09:25:38;;;;;;;7.73;3.70;;;9.80;99.90;;;;;;5054244;28;20442;-56
2022/01/02 09:28:05;;;;;;;5.43;3.40;;;9.80;99.90;;;;;;5053948;28;20466;-54
2022/01/02 09:30:32;;;;;;;7.37;3.80;;;9.90;99.90;;;;;;5054171;28;20482;-55
2022/01/02 09:32:59;;;;;;;4.03;3.13;;;10.00;23.90;;;;;;5053901;28;20533;-57
2022/01/02 09:35:26;;;;;;;7.20;4.27;;;10.00;27.80;;;;;;5054121;28;20450;-57
2022/01/02 09:37:53;;;;;;;6.73;3.40;;;10.10;39.40;;;;;;5053655;28;20557;-56
2022/01/02 09:40:20;;;;;;;6.77;3.90;;;10.10;48.00;;;;;;5053960;28;20888;-55
2022/01/02 09:42:48;;;;;;;8.20;4.57;;;10.10;52.80;;;;;;5054228;28;20544;-56
2022/01/02 09:45:14;;;;;;;5.63;3.50;;;10.10;55.00;;;;;;5053823;28;20999;-56
2022/01/02 09:47:43;;;;;;;5.47;4.10;;;10.10;52.20;;;;;;5053068;28;20524;-55
2022/01/02 09:50:10;;;;;;;5.70;3.57;;;10.20;58.20;;;;;;5053892;28;20485;-54
2022/01/02 09:52:37;;;;;;;8.13;4.10;;;10.20;59.40;;;;;;5053710;28;20564;-56
2022/01/02 09:55:04;;;;;;;5.77;3.70;;;10.20;55.80;;;;;;5053786;28;20449;-56
2022/01/02 09:57:31;;;;;;;9.93;4.00;;;10.20;54.20;;;;;;5053816;28;20591;-56
2022/01/02 09:59:59;;;;;;;6.13;3.50;;;10.20;55.10;;;;;;5053753;28;20537;-56
2022/01/02 10:02:25;;;;;;;6.07;3.67;;;10.30;57.30;;;;;;5053492;28;20513;-55
2022/01/02 10:05:01;;;;;;;5.10;3.73;;;10.30;59.10;;;;;;5053591;28;20442;-55
2022/01/02 10:07:30;;;;;;;4.67;3.37;;;10.40;53.00;;;;;;5053210;28;20473;-56
2022/01/02 10:09:57;;;;;;;5.40;3.40;;;10.40;54.00;;;;;;5053682;28;20453;-56
2022/01/02 10:12:28;;;;;;;10.83;4.17;;;10.40;46.30;;;;;;5053465;28;20530;-56
2022/01/02 10:15:17;;;;;;;7.90;4.20;;;10.50;44.70;;;;;;5053234;28;20792;-57
2022/01/02 10:18:06;;;;;;;10.70;4.03;;;10.60;52.90;;;;;;5052685;28;20518;-56
2022/01/02 10:20:36;;;;;;;7.47;3.87;;;10.60;56.20;;;;;;5047231;28;20458;-56
2022/01/02 10:23:06;;;;;;;11.07;3.47;;;10.70;56.50;;;;;;5053082;28;20878;-56
2022/01/02 10:25:42;;;;;;;8.03;3.47;;;10.70;64.10;;;;;;5053415;28;20499;-56
2022/01/02 10:28:28;;;;;;;6.07;3.60;;;10.70;61.30;;;;;;5053022;28;20540;-57
2022/01/02 10:30:59;;;;;;;9.27;3.90;;;10.70;68.20;;;;;;5053047;28;20500;-57
2022/01/02 10:33:27;;;;;;;7.13;3.93;;;10.70;72.80;;;;;;5053237;28;20541;-56
2022/01/02 10:35:58;;;;;;;5.90;3.83;;;10.70;78.50;;;;;;5052905;28;20545;-56
2022/01/02 10:38:25;;;;;;;7.00;3.53;;;10.70;82.10;;;;;;5052941;28;20549;-56
2022/01/02 10:40:51;;;;;;;7.63;3.60;;;10.70;84.60;;;;;;5052848;28;20955;-56
2022/01/02 10:43:27;;;;;;;6.53;3.67;;;10.70;85.50;;;;;;5052989;28;20528;-56
2022/01/02 10:45:55;;;;;;;4.33;2.90;;;10.80;92.50;;;;;;5052555;28;20484;-53
2022/01/02 10:48:35;;;;;;;6.13;4.03;;;10.70;96.10;;;;;;5052713;28;20523;-57
2022/01/02 10:51:05;;;;;;;6.03;3.60;;;10.60;76.70;;;;;;5052668;28;20529;-54
2022/01/02 10:53:33;;;;;;;8.20;4.03;;;10.60;64.10;;;;;;5052572;28;20491;-56
2022/01/02 10:56:00;;;;;;;5.90;2.97;;;10.60;57.90;;;;;;5052629;28;20458;-57
2022/01/02 10:58:28;;;;;;;19.83;3.60;;;10.60;53.20;;;;;;5051883;28;20470;-56
2022/01/02 11:01:01;;;;;;;4.87;3.00;;;10.60;47.20;;;;;;5052860;28;20481;-57
2022/01/02 11:03:30;;;;;;;4.17;3.00;;;10.50;42.90;;;;;;5052577;28;20449;-54
2022/01/02 11:06:05;;;;;;;6.50;3.50;;;10.50;20.50;;;;;;5052581;28;20529;-57
2022/01/02 11:08:34;;;;;;;6.00;3.30;;;10.50;99.90;;;;;;5051694;28;20481;-56
2022/01/02 11:11:02;;;;;;;5.63;3.57;;;10.50;99.90;;;;;;5052244;28;20450;-55
2022/01/02 11:13:28;;;;;;;8.13;3.17;;;10.40;99.90;;;;;;5051726;28;20501;-55
2022/01/02 11:15:55;;;;;;;4.57;4.13;;;10.50;99.90;;;;;;5052313;28;20581;-57
2022/01/02 11:18:22;;;;;;;8.50;3.70;;;10.40;99.90;;;;;;5051721;28;21029;-56
2022/01/02 11:20:49;;;;;;;8.93;3.50;;;10.40;99.90;;;;;;5052060;28;20453;-56
2022/01/02 11:23:24;;;;;;;6.07;3.30;;;10.40;99.90;;;;;;5051800;28;20529;-56
2022/01/02 11:25:58;;;;;;;7.60;3.77;;;10.40;99.90;;;;;;5051739;28;20468;-56
2022/01/02 11:28:34;;;;;;;6.63;3.60;;;10.40;99.90;;;;;;5051571;28;20489;-56
2022/01/02 11:31:01;;;;;;;10.20;4.10;;;10.50;99.90;;;;;;5052005;28;20445;-56
2022/01/02 11:33:33;;;;;;;10.30;3.80;;;10.40;99.90;;;;;;5052056;28;20533;-56
2022/01/02 11:36:01;;;;;;;8.93;4.33;;;10.40;99.90;;;;;;5051694;28;20471;-56
2022/01/02 11:38:43;;;;;;;8.10;4.03;;;10.40;99.90;;;;;;5051028;28;20882;-56
2022/01/02 11:41:13;;;;;;;5.87;3.80;;;10.50;99.90;;;;;;5051526;28;20813;-56
2022/01/02 11:43:56;;;;;;;7.73;3.43;;;10.50;99.90;;;;;;5051853;28;20545;-56
2022/01/02 11:46:26;;;;;;;4.63;2.83;;;10.50;99.90;;;;;;5051599;28;20453;-56
2022/01/02 11:49:17;;;;;;;9.87;4.37;;;10.40;99.90;;;;;;5051600;28;20493;-56
2022/01/02 11:52:05;;;;;;;12.57;4.30;;;10.40;99.90;;;;;;5051859;28;20450;-57
2022/01/02 11:54:50;;;;;;;5.87;3.50;;;10.30;99.90;;;;;;5051291;28;20446;-56
2022/01/02 11:57:46;;;;;;;6.23;4.30;;;10.30;99.90;;;;;;5048601;28;20520;-56
2022/01/02 12:00:32;;;;;;;9.83;4.43;;;10.30;99.90;;;;;;5051720;28;20541;-57
2022/01/02 12:02:58;;;;;;;8.80;4.60;;;10.30;99.90;;;;;;5051855;28;20469;-56
2022/01/02 12:05:25;;;;;;;7.23;4.67;;;10.20;99.90;;;;;;5051429;28;20528;-55
2022/01/02 12:07:53;;;;;;;9.43;4.57;;;10.20;99.90;;;;;;5051334;28;20557;-57
2022/01/02 12:10:28;;;;;;;9.07;3.70;;;10.20;99.90;;;;;;5051495;28;20450;-55
2022/01/02 12:13:17;;;;;;;10.90;3.97;;;10.20;99.90;;;;;;5051434;28;20485;-56
2022/01/02 12:16:06;;;;;;;6.30;3.40;;;10.20;1.40;;;;;;5051630;28;20446;-56
2022/01/02 12:18:34;;;;;;;9.17;4.50;;;10.20;99.90;;;;;;5051016;28;20933;-56
2022/01/02 12:21:11;;;;;;;8.90;4.37;;;10.20;99.90;;;;;;5051429;28;20446;-56
2022/01/02 12:23:54;;;;;;;9.50;4.33;;;10.20;99.90;;;;;;5051158;28;20453;-56
2022/01/02 12:26:28;;;;;;;9.20;4.80;;;10.20;99.90;;;;;;5055320;28;20923;-56
2022/01/02 12:28:57;;;;;;;5.10;3.60;;;10.20;99.90;;;;;;5054952;28;20474;-57
2022/01/02 12:31:27;;;;;;;8.37;4.13;;;10.20;99.90;;;;;;5055347;28;20485;-56
2022/01/02 12:33:58;;;;;;;7.27;4.60;;;10.20;99.90;;;;;;5055539;28;20445;-57
2022/01/02 12:36:24;;;;;;;11.83;4.47;;;10.20;99.90;;;;;;5055049;28;20537;-56
2022/01/02 12:38:58;;;;;;;6.97;4.10;;;10.20;99.90;;;;;;5054869;28;20556;-55
2022/01/02 12:41:27;;;;;;;10.00;4.80;;;10.20;99.90;;;;;;5055117;28;20540;-57
2022/01/02 12:43:55;;;;;;;8.03;4.00;;;10.20;99.90;;;;;;5048952;28;20446;-56
2022/01/02 12:46:41;;;;;;;5.90;4.97;;;10.20;99.90;;;;;;5054999;28;20528;-56
2022/01/02 12:49:09;;;;;;;11.47;4.93;;;10.20;99.90;;;;;;5054650;28;20465;-55
2022/01/02 12:51:38;;;;;;;9.20;5.53;;;10.20;99.90;;;;;;5054616;28;20975;-56
2022/01/02 12:54:06;;;;;;;7.43;5.43;;;10.10;99.90;;;;;;5055102;28;20451;-56
2022/01/02 12:56:39;;;;;;;9.80;5.27;;;10.10;99.90;;;;;;5054889;28;20454;-55
2022/01/02 12:59:21;;;;;;;6.67;4.37;;;10.10;99.90;;;;;;5054264;28;20481;-56
2022/01/02 13:01:56;;;;;;;14.90;5.20;;;10.10;99.90;;;;;;5055000;28;20445;-56
2022/01/02 13:04:24;;;;;;;9.13;6.47;;;10.10;99.90;;;;;;5054707;28;20476;-56
2022/01/02 13:06:52;;;;;;;8.63;4.90;;;10.10;99.90;;;;;;5054598;28;20461;-54